createdAt,value
2018-09-27T00:00:06.140Z,1.609344
2018-09-27T00:00:19.024Z,3.218688
2018-09-27T00:00:31.934Z,4.828032
2018-09-27T00:00:45.112Z,4.828032
2018-09-27T00:00:58.157Z,8.04672
2018-09-27T00:01:11.044Z,9.656064
2018-09-27T00:01:23.927Z,11.265408
2018-09-27T00:01:36.850Z,11.265408
2018-09-27T00:01:49.764Z,11.265408
2018-09-27T00:02:02.674Z,11.265408
2018-09-27T00:02:15.576Z,1.609344
2018-09-27T00:02:28.536Z,1.609344
2018-09-27T00:02:41.455Z,3.218688
2018-09-27T00:02:54.345Z,8.04672
2018-09-27T00:03:07.232Z,3.218688
2018-09-27T00:03:20.042Z,3.218688
2018-09-27T00:03:32.842Z,6.437376
2018-09-27T00:03:45.866Z,6.437376
2018-09-27T00:03:58.680Z,8.04672
2018-09-27T00:04:11.494Z,6.437376
2018-09-27T00:04:24.302Z,8.04672
2018-09-27T00:04:37.130Z,8.04672
2018-09-27T00:04:49.944Z,8.04672
2018-09-27T00:05:02.772Z,8.04672
2018-09-27T00:05:15.624Z,4.828032
2018-09-27T00:05:28.514Z,4.828032
2018-09-27T00:05:41.350Z,4.828032
2018-09-27T00:05:54.171Z,4.828032
2018-09-27T00:06:07.009Z,1.609344
2018-09-27T00:06:19.832Z,1.609344
2018-09-27T00:06:32.676Z,3.218688
2018-09-27T00:06:45.490Z,3.218688
2018-09-27T00:06:58.317Z,3.218688
2018-09-27T00:07:11.166Z,1.609344
2018-09-27T00:07:24.001Z,4.828032
2018-09-27T00:07:36.814Z,6.437376
2018-09-27T00:07:49.693Z,6.437376
2018-09-27T00:08:02.539Z,6.437376
2018-09-27T00:08:15.416Z,1.609344
2018-09-27T00:08:28.235Z,1.609344
2018-09-27T00:08:41.103Z,3.218688
2018-09-27T00:08:54.158Z,8.04672
2018-09-27T00:09:06.980Z,6.437376
2018-09-27T00:09:19.801Z,9.656064
2018-09-27T00:09:32.607Z,9.656064
2018-09-27T00:09:45.451Z,9.656064
2018-09-27T00:09:58.347Z,9.656064
2018-09-27T00:10:11.166Z,3.218688
2018-09-27T00:10:24.429Z,3.218688
2018-09-27T00:10:37.238Z,4.828032
2018-09-27T00:10:50.073Z,4.828032
2018-09-27T00:11:02.917Z,4.828032
2018-09-27T00:11:15.755Z,3.218688
2018-09-27T00:11:28.596Z,3.218688
2018-09-27T00:11:41.415Z,3.218688
2018-09-27T00:11:54.373Z,3.218688
2018-09-27T00:12:07.204Z,3.218688
2018-09-27T00:12:20.085Z,3.218688
2018-09-27T00:12:32.978Z,3.218688
2018-09-27T00:12:45.863Z,3.218688
2018-09-27T00:12:58.731Z,3.218688
2018-09-27T00:13:11.556Z,1.609344
2018-09-27T00:13:24.372Z,3.218688
2018-09-27T00:13:37.193Z,3.218688
2018-09-27T00:13:50.020Z,3.218688
2018-09-27T00:14:02.839Z,6.437376
2018-09-27T00:14:15.659Z,6.437376
2018-09-27T00:14:28.480Z,9.656064
2018-09-27T00:14:41.295Z,9.656064
2018-09-27T00:14:54.171Z,9.656064
2018-09-27T00:15:06.980Z,4.828032
2018-09-27T00:15:19.885Z,4.828032
2018-09-27T00:15:32.743Z,4.828032
2018-09-27T00:15:45.568Z,4.828032
2018-09-27T00:15:58.450Z,4.828032
2018-09-27T00:16:11.314Z,3.218688
2018-09-27T00:16:24.157Z,3.218688
2018-09-27T00:16:36.993Z,6.437376
2018-09-27T00:16:49.820Z,6.437376
2018-09-27T00:17:02.650Z,6.437376
2018-09-27T00:17:15.509Z,3.218688
2018-09-27T00:17:28.401Z,6.437376
2018-09-27T00:17:41.258Z,6.437376
2018-09-27T00:17:54.104Z,6.437376
2018-09-27T00:18:06.914Z,6.437376
2018-09-27T00:18:19.758Z,6.437376
2018-09-27T00:18:32.933Z,6.437376
2018-09-27T00:18:45.774Z,6.437376
2018-09-27T00:18:58.588Z,6.437376
2018-09-27T00:19:11.487Z,4.828032
2018-09-27T00:19:24.439Z,6.437376
2018-09-27T00:19:38.209Z,8.04672
2018-09-27T00:19:51.695Z,8.04672
2018-09-27T00:20:04.525Z,1.609344
2018-09-27T00:20:17.403Z,1.609344
2018-09-27T00:20:30.247Z,1.609344
2018-09-27T00:20:43.093Z,3.218688
2018-09-27T00:20:55.923Z,3.218688
2018-09-27T00:21:08.781Z,1.609344
2018-09-27T00:21:21.891Z,3.218688
2018-09-27T00:21:34.721Z,4.828032
2018-09-27T00:21:47.584Z,6.437376
2018-09-27T00:22:00.406Z,6.437376
2018-09-27T00:22:13.268Z,3.218688
2018-09-27T00:22:26.136Z,3.218688
2018-09-27T00:22:38.955Z,6.437376
2018-09-27T00:22:52.029Z,11.265408
2018-09-27T00:23:04.923Z,3.218688
2018-09-27T00:23:17.744Z,4.828032
2018-09-27T00:23:30.701Z,6.437376
2018-09-27T00:23:43.875Z,11.265408
2018-09-27T00:23:56.737Z,11.265408
2018-09-27T00:24:09.579Z,3.218688
2018-09-27T00:24:22.446Z,8.04672
2018-09-27T00:24:35.474Z,12.874752
2018-09-27T00:24:48.320Z,12.874752
2018-09-27T00:25:01.173Z,12.874752
2018-09-27T00:25:14.009Z,12.874752
2018-09-27T00:25:26.834Z,12.874752
2018-09-27T00:25:39.682Z,12.874752
2018-09-27T00:25:52.498Z,12.874752
2018-09-27T00:26:05.313Z,6.437376
2018-09-27T00:26:18.160Z,6.437376
2018-09-27T00:26:31.011Z,6.437376
2018-09-27T00:26:43.829Z,8.04672
2018-09-27T00:26:56.685Z,9.656064
2018-09-27T00:27:09.763Z,3.218688
2018-09-27T00:27:22.619Z,3.218688
2018-09-27T00:27:35.505Z,3.218688
2018-09-27T00:27:48.597Z,6.437376
2018-09-27T00:28:01.482Z,8.04672
2018-09-27T00:28:14.369Z,9.656064
2018-09-27T00:28:27.259Z,9.656064
2018-09-27T00:28:40.168Z,9.656064
2018-09-27T00:28:53.063Z,9.656064
2018-09-27T00:29:05.964Z,6.437376
2018-09-27T00:29:18.886Z,6.437376
2018-09-27T00:29:31.796Z,6.437376
2018-09-27T00:29:44.707Z,6.437376
2018-09-27T00:29:57.627Z,6.437376
2018-09-27T00:30:10.587Z,3.218688
2018-09-27T00:30:23.489Z,4.828032
2018-09-27T00:30:36.408Z,4.828032
2018-09-27T00:30:49.303Z,4.828032
2018-09-27T00:31:02.192Z,4.828032
2018-09-27T00:31:15.126Z,1.609344
2018-09-27T00:31:28.010Z,1.609344
2018-09-27T00:31:40.937Z,1.609344
2018-09-27T00:31:53.842Z,11.265408
2018-09-27T00:32:06.780Z,4.828032
2018-09-27T00:32:19.729Z,14.484096
2018-09-27T00:32:32.622Z,14.484096
2018-09-27T00:32:45.519Z,14.484096
2018-09-27T00:32:58.448Z,14.484096
2018-09-27T00:33:12.332Z,4.828032
2018-09-27T00:33:25.194Z,8.04672
2018-09-27T00:33:38.070Z,9.656064
2018-09-27T00:33:50.919Z,9.656064
2018-09-27T00:34:03.738Z,3.218688
2018-09-27T00:34:16.568Z,6.437376
2018-09-27T00:34:29.398Z,6.437376
2018-09-27T00:34:42.250Z,6.437376
2018-09-27T00:34:55.088Z,6.437376
2018-09-27T00:35:07.920Z,6.437376
2018-09-27T00:35:20.796Z,6.437376
2018-09-27T00:35:33.651Z,6.437376
2018-09-27T00:35:46.535Z,11.265408
2018-09-27T00:35:59.373Z,11.265408
2018-09-27T00:36:12.224Z,8.04672
2018-09-27T00:36:25.068Z,8.04672
2018-09-27T00:36:37.923Z,14.484096
2018-09-27T00:36:50.730Z,14.484096
2018-09-27T00:37:03.570Z,6.437376
2018-09-27T00:37:16.388Z,6.437376
2018-09-27T00:37:29.209Z,6.437376
2018-09-27T00:37:42.016Z,6.437376
2018-09-27T00:37:54.849Z,6.437376
2018-09-27T00:38:08.312Z,3.218688
2018-09-27T00:38:21.220Z,3.218688
2018-09-27T00:38:34.052Z,3.218688
2018-09-27T00:38:46.864Z,3.218688
2018-09-27T00:38:59.715Z,11.265408
2018-09-27T00:39:12.537Z,8.04672
2018-09-27T00:39:25.345Z,8.04672
2018-09-27T00:39:38.492Z,8.04672
2018-09-27T00:39:51.580Z,8.04672
2018-09-27T00:40:04.403Z,6.437376
2018-09-27T00:40:17.257Z,6.437376
2018-09-27T00:40:30.085Z,6.437376
2018-09-27T00:40:42.892Z,6.437376
2018-09-27T00:40:55.730Z,6.437376
2018-09-27T00:41:08.556Z,8.04672
2018-09-27T00:41:21.374Z,9.656064
2018-09-27T00:41:34.212Z,9.656064
2018-09-27T00:41:47.041Z,9.656064
2018-09-27T00:41:59.869Z,14.484096
2018-09-27T00:42:12.699Z,9.656064
2018-09-27T00:42:25.675Z,12.874752
2018-09-27T00:42:38.518Z,12.874752
2018-09-27T00:42:51.357Z,12.874752
2018-09-27T00:43:04.230Z,9.656064
2018-09-27T00:43:17.054Z,9.656064
2018-09-27T00:43:29.878Z,9.656064
2018-09-27T00:43:42.786Z,9.656064
2018-09-27T00:43:55.779Z,9.656064
2018-09-27T00:44:08.598Z,3.218688
2018-09-27T00:44:21.398Z,3.218688
2018-09-27T00:44:34.210Z,3.218688
2018-09-27T00:44:47.044Z,3.218688
2018-09-27T00:44:59.871Z,3.218688
2018-09-27T00:45:12.698Z,3.218688
2018-09-27T00:45:25.529Z,3.218688
2018-09-27T00:45:38.356Z,3.218688
2018-09-27T00:45:51.181Z,3.218688
2018-09-27T00:46:04.005Z,3.218688
2018-09-27T00:46:16.827Z,3.218688
2018-09-27T00:46:29.650Z,3.218688
2018-09-27T00:46:42.467Z,3.218688
2018-09-27T00:46:55.273Z,9.656064
2018-09-27T00:47:08.102Z,8.04672
2018-09-27T00:47:21.065Z,9.656064
2018-09-27T00:47:33.882Z,11.265408
2018-09-27T00:47:46.740Z,11.265408
2018-09-27T00:47:59.560Z,11.265408
2018-09-27T00:48:12.387Z,8.04672
2018-09-27T00:48:25.586Z,8.04672
2018-09-27T00:48:38.401Z,8.04672
2018-09-27T00:48:51.248Z,9.656064
2018-09-27T00:49:04.085Z,8.04672
2018-09-27T00:49:16.927Z,8.04672
2018-09-27T00:49:29.928Z,8.04672
2018-09-27T00:49:42.781Z,8.04672
2018-09-27T00:49:55.587Z,8.04672
2018-09-27T00:50:08.421Z,9.656064
2018-09-27T00:50:21.243Z,12.874752
2018-09-27T00:50:34.328Z,12.874752
2018-09-27T00:50:47.136Z,12.874752
2018-09-27T00:50:59.939Z,12.874752
2018-09-27T00:51:12.745Z,14.484096
2018-09-27T00:51:25.542Z,14.484096
2018-09-27T00:51:38.493Z,16.09344
2018-09-27T00:51:51.305Z,16.09344
2018-09-27T00:52:04.095Z,1.609344
2018-09-27T00:52:16.897Z,17.702784
2018-09-27T00:52:29.701Z,17.702784
2018-09-27T00:52:42.524Z,17.702784
2018-09-27T00:52:55.335Z,17.702784
2018-09-27T00:53:08.215Z,4.828032
2018-09-27T00:53:21.018Z,17.702784
2018-09-27T00:53:33.876Z,17.702784
2018-09-27T00:53:46.685Z,17.702784
2018-09-27T00:53:59.493Z,17.702784
2018-09-27T00:54:12.314Z,8.04672
2018-09-27T00:54:25.125Z,8.04672
2018-09-27T00:54:37.931Z,8.04672
2018-09-27T00:54:50.754Z,8.04672
2018-09-27T00:55:03.544Z,3.218688
2018-09-27T00:55:16.352Z,3.218688
2018-09-27T00:55:29.168Z,3.218688
2018-09-27T00:55:41.988Z,6.437376
2018-09-27T00:55:54.789Z,8.04672
2018-09-27T00:56:07.603Z,12.874752
2018-09-27T00:56:20.417Z,12.874752
2018-09-27T00:56:33.226Z,12.874752
2018-09-27T00:56:46.049Z,14.484096
2018-09-27T00:56:59.016Z,14.484096
2018-09-27T00:57:11.839Z,12.874752
2018-09-27T00:57:24.673Z,12.874752
2018-09-27T00:57:37.477Z,12.874752
2018-09-27T00:57:50.307Z,12.874752
2018-09-27T00:58:03.225Z,12.874752
2018-09-27T00:58:16.124Z,9.656064
2018-09-27T00:58:29.015Z,9.656064
2018-09-27T00:58:41.901Z,9.656064
2018-09-27T00:58:54.799Z,9.656064
2018-09-27T00:59:07.691Z,3.218688
2018-09-27T00:59:20.579Z,8.04672
2018-09-27T00:59:33.468Z,9.656064
2018-09-27T00:59:46.320Z,9.656064
2018-09-27T00:59:59.125Z,9.656064
2018-09-27T01:00:11.947Z,11.265408
2018-09-27T01:00:24.763Z,11.265408
2018-09-27T01:00:37.608Z,11.265408
2018-09-27T01:00:50.457Z,11.265408
2018-09-27T01:01:03.776Z,6.437376
2018-09-27T01:01:16.618Z,11.265408
2018-09-27T01:01:29.448Z,11.265408
2018-09-27T01:01:42.281Z,11.265408
2018-09-27T01:01:55.101Z,11.265408
2018-09-27T01:02:07.929Z,3.218688
2018-09-27T01:02:20.739Z,12.874752
2018-09-27T01:02:33.577Z,12.874752
2018-09-27T01:02:46.406Z,12.874752
2018-09-27T01:02:59.236Z,12.874752
2018-09-27T01:03:12.047Z,8.04672
2018-09-27T01:03:24.859Z,9.656064
2018-09-27T01:03:37.771Z,9.656064
2018-09-27T01:03:50.581Z,9.656064
2018-09-27T01:04:03.381Z,9.656064
2018-09-27T01:04:16.182Z,14.484096
2018-09-27T01:04:29.006Z,14.484096
2018-09-27T01:04:41.851Z,14.484096
2018-09-27T01:04:54.679Z,14.484096
2018-09-27T01:05:07.508Z,9.656064
2018-09-27T01:05:20.336Z,9.656064
2018-09-27T01:05:33.148Z,9.656064
2018-09-27T01:05:45.977Z,9.656064
2018-09-27T01:05:58.799Z,9.656064
2018-09-27T01:06:11.637Z,3.218688
2018-09-27T01:06:24.465Z,9.656064
2018-09-27T01:06:37.273Z,9.656064
2018-09-27T01:06:50.112Z,9.656064
2018-09-27T01:07:02.974Z,9.656064
2018-09-27T01:07:15.828Z,6.437376
2018-09-27T01:07:28.678Z,9.656064
2018-09-27T01:07:41.510Z,9.656064
2018-09-27T01:07:54.361Z,9.656064
2018-09-27T01:08:07.238Z,9.656064
2018-09-27T01:08:20.055Z,12.874752
2018-09-27T01:08:32.894Z,12.874752
2018-09-27T01:08:45.778Z,12.874752
2018-09-27T01:08:58.825Z,12.874752
2018-09-27T01:09:11.667Z,6.437376
2018-09-27T01:09:24.534Z,6.437376
2018-09-27T01:09:37.380Z,6.437376
2018-09-27T01:09:50.230Z,6.437376
2018-09-27T01:10:03.078Z,6.437376
2018-09-27T01:10:15.932Z,11.265408
2018-09-27T01:10:28.997Z,11.265408
2018-09-27T01:10:41.822Z,11.265408
2018-09-27T01:10:54.640Z,11.265408
2018-09-27T01:11:07.460Z,4.828032
2018-09-27T01:11:20.277Z,8.04672
2018-09-27T01:11:33.108Z,8.04672
2018-09-27T01:11:45.936Z,12.874752
2018-09-27T01:11:59.017Z,16.09344
2018-09-27T01:12:11.865Z,9.656064
2018-09-27T01:12:24.911Z,9.656064
2018-09-27T01:12:38.028Z,9.656064
2018-09-27T01:12:50.874Z,9.656064
2018-09-27T01:13:03.729Z,1.609344
2018-09-27T01:13:16.552Z,1.609344
2018-09-27T01:13:29.363Z,1.609344
2018-09-27T01:13:42.230Z,3.218688
2018-09-27T01:13:55.308Z,3.218688
2018-09-27T01:14:08.152Z,3.218688
2018-09-27T01:14:20.981Z,11.265408
2018-09-27T01:14:33.797Z,11.265408
2018-09-27T01:14:46.673Z,11.265408
2018-09-27T01:14:59.487Z,11.265408
2018-09-27T01:15:12.321Z,9.656064
2018-09-27T01:15:25.169Z,9.656064
2018-09-27T01:15:38.016Z,11.265408
2018-09-27T01:15:50.844Z,16.09344
2018-09-27T01:16:03.866Z,9.656064
2018-09-27T01:16:16.702Z,9.656064
2018-09-27T01:16:29.593Z,9.656064
2018-09-27T01:16:42.424Z,11.265408
2018-09-27T01:16:55.296Z,11.265408
2018-09-27T01:17:08.191Z,12.874752
2018-09-27T01:17:21.009Z,12.874752
2018-09-27T01:17:33.867Z,12.874752
2018-09-27T01:17:46.730Z,12.874752
2018-09-27T01:17:59.596Z,12.874752
2018-09-27T01:18:12.453Z,6.437376
2018-09-27T01:18:25.315Z,6.437376
2018-09-27T01:18:38.154Z,11.265408
2018-09-27T01:18:51.001Z,12.874752
2018-09-27T01:19:03.851Z,9.656064
2018-09-27T01:19:16.673Z,12.874752
2018-09-27T01:19:29.525Z,12.874752
2018-09-27T01:19:42.359Z,12.874752
2018-09-27T01:19:55.183Z,12.874752
2018-09-27T01:20:08.000Z,6.437376
2018-09-27T01:20:20.812Z,9.656064
2018-09-27T01:20:33.694Z,9.656064
2018-09-27T01:20:46.514Z,11.265408
2018-09-27T01:20:59.329Z,11.265408
2018-09-27T01:21:12.140Z,8.04672
2018-09-27T01:21:25.464Z,8.04672
2018-09-27T01:21:38.484Z,8.04672
2018-09-27T01:21:51.303Z,8.04672
2018-09-27T01:22:04.137Z,4.828032
2018-09-27T01:22:16.971Z,6.437376
2018-09-27T01:22:29.795Z,6.437376
2018-09-27T01:22:42.624Z,8.04672
2018-09-27T01:22:55.642Z,8.04672
2018-09-27T01:23:08.588Z,4.828032
2018-09-27T01:23:21.449Z,4.828032
2018-09-27T01:23:34.288Z,9.656064
2018-09-27T01:23:47.359Z,9.656064
2018-09-27T01:24:00.185Z,9.656064
2018-09-27T01:24:13.013Z,3.218688
2018-09-27T01:24:25.830Z,11.265408
2018-09-27T01:24:38.854Z,11.265408
2018-09-27T01:24:51.720Z,11.265408
2018-09-27T01:25:04.571Z,4.828032
2018-09-27T01:25:17.397Z,8.04672
2018-09-27T01:25:30.227Z,8.04672
2018-09-27T01:25:43.034Z,8.04672
2018-09-27T01:25:55.853Z,12.874752
2018-09-27T01:26:08.665Z,12.874752
2018-09-27T01:26:21.479Z,12.874752
2018-09-27T01:26:34.298Z,12.874752
2018-09-27T01:26:47.147Z,12.874752
2018-09-27T01:26:59.973Z,12.874752
2018-09-27T01:27:13.011Z,4.828032
2018-09-27T01:27:25.852Z,6.437376
2018-09-27T01:27:38.715Z,6.437376
2018-09-27T01:27:51.749Z,6.437376
2018-09-27T01:28:04.649Z,1.609344
2018-09-27T01:28:17.483Z,3.218688
2018-09-27T01:28:30.316Z,16.09344
2018-09-27T01:28:43.152Z,17.702784
2018-09-27T01:28:56.003Z,17.702784
2018-09-27T01:29:08.843Z,1.609344
2018-09-27T01:29:21.701Z,1.609344
2018-09-27T01:29:34.610Z,3.218688
2018-09-27T01:29:47.441Z,9.656064
2018-09-27T01:30:00.251Z,9.656064
2018-09-27T01:30:13.091Z,8.04672
2018-09-27T01:30:26.004Z,11.265408
2018-09-27T01:30:38.862Z,11.265408
2018-09-27T01:30:51.757Z,14.484096
2018-09-27T01:31:04.600Z,8.04672
2018-09-27T01:31:17.444Z,8.04672
2018-09-27T01:31:30.257Z,8.04672
2018-09-27T01:31:43.115Z,8.04672
2018-09-27T01:31:55.961Z,8.04672
2018-09-27T01:32:08.794Z,6.437376
2018-09-27T01:32:21.640Z,6.437376
2018-09-27T01:32:34.482Z,6.437376
2018-09-27T01:32:47.336Z,6.437376
2018-09-27T01:33:00.489Z,6.437376
2018-09-27T01:33:13.524Z,8.04672
2018-09-27T01:33:26.351Z,8.04672
2018-09-27T01:33:39.333Z,8.04672
2018-09-27T01:33:52.158Z,8.04672
2018-09-27T01:34:05.021Z,3.218688
2018-09-27T01:34:17.856Z,3.218688
2018-09-27T01:34:30.696Z,3.218688
2018-09-27T01:34:43.549Z,3.218688
2018-09-27T01:34:56.379Z,3.218688
2018-09-27T01:35:09.207Z,3.218688
2018-09-27T01:35:22.038Z,3.218688
2018-09-27T01:35:34.862Z,3.218688
2018-09-27T01:35:47.678Z,9.656064
2018-09-27T01:36:00.490Z,9.656064
2018-09-27T01:36:13.329Z,8.04672
2018-09-27T01:36:26.186Z,8.04672
2018-09-27T01:36:39.006Z,8.04672
2018-09-27T01:36:51.850Z,8.04672
2018-09-27T01:37:04.665Z,8.04672
2018-09-27T01:37:17.480Z,8.04672
2018-09-27T01:37:30.295Z,8.04672
2018-09-27T01:37:43.108Z,8.04672
2018-09-27T01:37:55.953Z,8.04672
2018-09-27T01:38:09.234Z,3.218688
2018-09-27T01:38:22.075Z,8.04672
2018-09-27T01:38:35.110Z,8.04672
2018-09-27T01:38:47.944Z,8.04672
2018-09-27T01:39:00.751Z,8.04672
2018-09-27T01:39:13.596Z,12.874752
2018-09-27T01:39:26.432Z,12.874752
2018-09-27T01:39:39.715Z,12.874752
2018-09-27T01:39:52.796Z,12.874752
2018-09-27T01:40:05.619Z,11.265408
2018-09-27T01:40:18.480Z,11.265408
2018-09-27T01:40:31.585Z,11.265408
2018-09-27T01:40:44.406Z,11.265408
2018-09-27T01:40:57.385Z,11.265408
2018-09-27T01:41:10.213Z,4.828032
2018-09-27T01:41:23.054Z,4.828032
2018-09-27T01:41:35.887Z,4.828032
2018-09-27T01:41:48.717Z,4.828032
2018-09-27T01:42:01.573Z,4.828032
2018-09-27T01:42:14.419Z,9.656064
2018-09-27T01:42:27.524Z,9.656064
2018-09-27T01:42:40.341Z,9.656064
2018-09-27T01:42:53.219Z,9.656064
2018-09-27T01:43:06.107Z,6.437376
2018-09-27T01:43:18.961Z,8.04672
2018-09-27T01:43:31.832Z,11.265408
2018-09-27T01:43:44.694Z,11.265408
2018-09-27T01:43:57.776Z,11.265408
2018-09-27T01:44:10.801Z,12.874752
2018-09-27T01:44:23.904Z,14.484096
2018-09-27T01:44:36.739Z,14.484096
2018-09-27T01:44:49.577Z,14.484096
2018-09-27T01:45:02.554Z,14.484096
2018-09-27T01:45:15.383Z,6.437376
2018-09-27T01:45:28.233Z,6.437376
2018-09-27T01:45:41.085Z,6.437376
2018-09-27T01:45:53.909Z,9.656064
2018-09-27T01:46:06.734Z,6.437376
2018-09-27T01:46:19.576Z,6.437376
2018-09-27T01:46:32.397Z,6.437376
2018-09-27T01:46:45.517Z,9.656064
2018-09-27T01:46:58.519Z,11.265408
2018-09-27T01:47:12.154Z,12.874752
2018-09-27T01:47:25.320Z,16.09344
2018-09-27T01:47:38.223Z,16.09344
2018-09-27T01:47:51.094Z,16.09344
2018-09-27T01:48:03.926Z,8.04672
2018-09-27T01:48:16.742Z,9.656064
2018-09-27T01:48:29.716Z,9.656064
2018-09-27T01:48:42.718Z,9.656064
2018-09-27T01:48:55.541Z,9.656064
2018-09-27T01:49:08.379Z,3.218688
2018-09-27T01:49:21.214Z,8.04672
2018-09-27T01:49:34.296Z,8.04672
2018-09-27T01:49:47.129Z,8.04672
2018-09-27T01:49:59.947Z,8.04672
2018-09-27T01:50:12.789Z,8.04672
2018-09-27T01:50:26.160Z,8.04672
2018-09-27T01:50:39.029Z,8.04672
2018-09-27T01:50:51.873Z,8.04672
2018-09-27T01:51:04.761Z,9.656064
2018-09-27T01:51:17.651Z,9.656064
2018-09-27T01:51:30.517Z,9.656064
2018-09-27T01:51:43.432Z,9.656064
2018-09-27T01:51:56.278Z,9.656064
2018-09-27T01:52:09.098Z,11.265408
2018-09-27T01:52:21.943Z,11.265408
2018-09-27T01:52:34.751Z,11.265408
2018-09-27T01:52:47.611Z,11.265408
2018-09-27T01:53:00.433Z,11.265408
2018-09-27T01:53:13.258Z,3.218688
2018-09-27T01:53:26.131Z,3.218688
2018-09-27T01:53:38.938Z,6.437376
2018-09-27T01:53:51.787Z,6.437376
2018-09-27T01:54:04.590Z,1.609344
2018-09-27T01:54:17.425Z,6.437376
2018-09-27T01:54:30.294Z,6.437376
2018-09-27T01:54:43.109Z,6.437376
2018-09-27T01:54:55.928Z,6.437376
2018-09-27T01:55:08.760Z,3.218688
2018-09-27T01:55:21.604Z,4.828032
2018-09-27T01:55:34.445Z,4.828032
2018-09-27T01:55:47.343Z,4.828032
2018-09-27T01:56:00.190Z,4.828032
2018-09-27T01:56:13.042Z,1.609344
2018-09-27T01:56:25.918Z,4.828032
2018-09-27T01:56:38.769Z,8.04672
2018-09-27T01:56:51.633Z,8.04672
2018-09-27T01:57:04.500Z,4.828032
2018-09-27T01:57:17.325Z,9.656064
2018-09-27T01:57:30.178Z,9.656064
2018-09-27T01:57:43.016Z,9.656064
2018-09-27T01:57:55.874Z,9.656064
2018-09-27T01:58:08.749Z,6.437376
2018-09-27T01:58:21.565Z,8.04672
2018-09-27T01:58:34.406Z,8.04672
2018-09-27T01:58:47.259Z,8.04672
2018-09-27T01:59:00.118Z,8.04672
2018-09-27T01:59:12.973Z,3.218688
2018-09-27T01:59:25.894Z,4.828032
2018-09-27T01:59:38.733Z,4.828032
2018-09-27T01:59:51.810Z,4.828032
2018-09-27T02:00:04.637Z,1.609344
2018-09-27T02:00:17.458Z,3.218688
2018-09-27T02:00:30.360Z,14.484096
2018-09-27T02:00:43.224Z,14.484096
2018-09-27T02:00:56.152Z,14.484096
2018-09-27T02:01:09.019Z,9.656064
2018-09-27T02:01:21.850Z,9.656064
2018-09-27T02:01:34.701Z,9.656064
2018-09-27T02:01:47.550Z,9.656064
2018-09-27T02:02:00.386Z,9.656064
2018-09-27T02:02:13.254Z,8.04672
2018-09-27T02:02:26.130Z,8.04672
2018-09-27T02:02:38.986Z,8.04672
2018-09-27T02:02:51.830Z,8.04672
2018-09-27T02:03:04.658Z,0
2018-09-27T02:03:17.481Z,3.218688
2018-09-27T02:03:30.326Z,8.04672
2018-09-27T02:03:43.303Z,11.265408
2018-09-27T02:03:56.152Z,11.265408
2018-09-27T02:04:09.041Z,3.218688
2018-09-27T02:04:21.898Z,3.218688
2018-09-27T02:04:34.738Z,3.218688
2018-09-27T02:04:47.577Z,3.218688
2018-09-27T02:05:00.439Z,8.04672
2018-09-27T02:05:13.436Z,6.437376
2018-09-27T02:05:26.267Z,6.437376
2018-09-27T02:05:39.111Z,6.437376
2018-09-27T02:05:51.940Z,8.04672
2018-09-27T02:06:04.807Z,6.437376
2018-09-27T02:06:17.636Z,9.656064
2018-09-27T02:06:30.470Z,9.656064
2018-09-27T02:06:43.295Z,9.656064
2018-09-27T02:06:56.151Z,9.656064
2018-09-27T02:07:08.997Z,6.437376
2018-09-27T02:07:21.819Z,6.437376
2018-09-27T02:07:34.653Z,6.437376
2018-09-27T02:07:47.484Z,6.437376
2018-09-27T02:08:00.504Z,9.656064
2018-09-27T02:08:13.338Z,4.828032
2018-09-27T02:08:26.177Z,4.828032
2018-09-27T02:08:39.026Z,8.04672
2018-09-27T02:08:51.847Z,8.04672
2018-09-27T02:09:05.103Z,6.437376
2018-09-27T02:09:17.993Z,6.437376
2018-09-27T02:09:30.831Z,6.437376
2018-09-27T02:09:43.655Z,6.437376
2018-09-27T02:09:56.492Z,6.437376
2018-09-27T02:10:09.354Z,3.218688
2018-09-27T02:10:22.425Z,3.218688
2018-09-27T02:10:35.279Z,3.218688
2018-09-27T02:10:48.128Z,3.218688
2018-09-27T02:11:01.030Z,3.218688
2018-09-27T02:11:13.868Z,9.656064
2018-09-27T02:11:26.776Z,9.656064
2018-09-27T02:11:39.609Z,9.656064
2018-09-27T02:11:53.089Z,9.656064
2018-09-27T02:12:05.919Z,3.218688
2018-09-27T02:12:18.952Z,3.218688
2018-09-27T02:12:31.766Z,3.218688
2018-09-27T02:12:44.636Z,3.218688
2018-09-27T02:12:57.477Z,3.218688
2018-09-27T02:13:10.338Z,9.656064
2018-09-27T02:13:23.204Z,9.656064
2018-09-27T02:13:36.077Z,9.656064
2018-09-27T02:13:49.012Z,9.656064
2018-09-27T02:14:01.843Z,9.656064
2018-09-27T02:14:14.691Z,1.609344
2018-09-27T02:14:27.551Z,1.609344
2018-09-27T02:14:40.380Z,3.218688
2018-09-27T02:14:53.207Z,3.218688
2018-09-27T02:15:06.031Z,4.828032
2018-09-27T02:15:18.843Z,4.828032
2018-09-27T02:15:31.686Z,6.437376
2018-09-27T02:15:44.514Z,8.04672
2018-09-27T02:15:57.333Z,8.04672
2018-09-27T02:16:10.142Z,3.218688
2018-09-27T02:16:22.960Z,3.218688
2018-09-27T02:16:35.773Z,3.218688
2018-09-27T02:16:48.600Z,3.218688
2018-09-27T02:17:01.412Z,3.218688
2018-09-27T02:17:14.232Z,3.218688
2018-09-27T02:17:27.049Z,6.437376
2018-09-27T02:17:39.864Z,8.04672
2018-09-27T02:17:52.685Z,8.04672
2018-09-27T02:18:05.503Z,6.437376
2018-09-27T02:18:18.335Z,8.04672
2018-09-27T02:18:31.160Z,8.04672
2018-09-27T02:18:44.470Z,11.265408
2018-09-27T02:18:57.372Z,11.265408
2018-09-27T02:19:10.200Z,3.218688
2018-09-27T02:19:23.012Z,3.218688
2018-09-27T02:19:35.835Z,6.437376
2018-09-27T02:19:48.658Z,6.437376
2018-09-27T02:20:01.477Z,6.437376
2018-09-27T02:20:14.294Z,6.437376
2018-09-27T02:20:27.122Z,6.437376
2018-09-27T02:20:39.931Z,9.656064
2018-09-27T02:20:52.730Z,9.656064
2018-09-27T02:21:05.538Z,4.828032
2018-09-27T02:21:18.631Z,6.437376
2018-09-27T02:21:31.433Z,6.437376
2018-09-27T02:21:44.245Z,6.437376
2018-09-27T02:21:57.362Z,6.437376
2018-09-27T02:22:10.199Z,6.437376
2018-09-27T02:22:23.009Z,11.265408
2018-09-27T02:22:35.823Z,11.265408
2018-09-27T02:22:48.941Z,11.265408
2018-09-27T02:23:01.756Z,11.265408
2018-09-27T02:23:14.702Z,8.04672
2018-09-27T02:23:27.518Z,8.04672
2018-09-27T02:23:40.561Z,8.04672
2018-09-27T02:23:53.376Z,11.265408
2018-09-27T02:24:06.187Z,6.437376
2018-09-27T02:24:18.997Z,8.04672
2018-09-27T02:24:32.032Z,8.04672
2018-09-27T02:24:44.837Z,8.04672
2018-09-27T02:24:57.635Z,8.04672
2018-09-27T02:25:10.517Z,3.218688
2018-09-27T02:25:23.394Z,4.828032
2018-09-27T02:25:36.331Z,6.437376
2018-09-27T02:25:49.213Z,6.437376
2018-09-27T02:26:02.099Z,8.04672
2018-09-27T02:26:14.976Z,6.437376
2018-09-27T02:26:28.122Z,6.437376
2018-09-27T02:26:41.003Z,6.437376
2018-09-27T02:26:53.973Z,6.437376
2018-09-27T02:27:07.065Z,3.218688
2018-09-27T02:27:19.914Z,6.437376
2018-09-27T02:27:32.736Z,6.437376
2018-09-27T02:27:45.563Z,6.437376
2018-09-27T02:27:58.659Z,6.437376
2018-09-27T02:28:11.483Z,4.828032
2018-09-27T02:28:24.303Z,6.437376
2018-09-27T02:28:37.282Z,6.437376
2018-09-27T02:28:50.144Z,6.437376
2018-09-27T02:29:02.992Z,6.437376
2018-09-27T02:29:15.846Z,6.437376
2018-09-27T02:29:28.707Z,6.437376
2018-09-27T02:29:41.522Z,8.04672
2018-09-27T02:29:54.361Z,8.04672
2018-09-27T02:30:07.222Z,3.218688
2018-09-27T02:30:20.101Z,3.218688
2018-09-27T02:30:33.002Z,3.218688
2018-09-27T02:30:45.929Z,3.218688
2018-09-27T02:30:58.799Z,6.437376